UAE927 OMDB-HECA
Flight info
| Callsign | UAE927 |
|---|---|
| Flight time | N/A |
| Altitude | 38000 |
| Route | ANVIX R401 GIDIS G783 RIGIL/N0475F320 G783 TANSU/N0444F280 G783 ASNUR L883 PUSON/N0494F380 L883 KITUB Y511 ELONU G799 PMA/N0495F400 V10 PEGUR Z712 WEJ L677 CVO |
| Aircraft | A388/J-SADE2E3FGHIJ3J4J5M1RWXY/LB1D1 |
Departure
| Time | 2026-04-22 11:42 |
|---|---|
| Airport | Dubai International Airport (OMDB) |
Arrival
| Time | N/A |
|---|---|
| Airport | Cairo International Airport (HECA) |
| Time | Latitude | Longitude | Altitude | Speed | Heading |
|---|---|---|---|---|---|
| 2026-04-22 10:57 | 25.24880 | 55.36297 | 27 ft | 0 kts | 211° |
| 2026-04-22 11:24 | 25.24883 | 55.36300 | 27 ft | 2 kts | 210° |
| 2026-04-22 11:24 | 25.24897 | 55.36310 | 27 ft | 2 kts | 214° |
| 2026-04-22 11:25 | 25.24911 | 55.36320 | 26 ft | 2 kts | 217° |
| 2026-04-22 11:25 | 25.24923 | 55.36333 | 26 ft | 2 kts | 223° |
| 2026-04-22 11:25 | 25.24934 | 55.36347 | 22 ft | 2 kts | 232° |
| 2026-04-22 11:25 | 25.24941 | 55.36363 | 26 ft | 2 kts | 252° |
| 2026-04-22 11:26 | 25.24940 | 55.36381 | 27 ft | 2 kts | 280° |
| 2026-04-22 11:26 | 25.24936 | 55.36392 | 27 ft | 1 kts | 294° |
| 2026-04-22 11:26 | 25.24936 | 55.36393 | 27 ft | 0 kts | 295° |
| 2026-04-22 11:29 | 25.24939 | 55.36385 | 26 ft | 4 kts | 296° |
| 2026-04-22 11:29 | 25.24963 | 55.36345 | 29 ft | 9 kts | 302° |
| 2026-04-22 11:29 | 25.25003 | 55.36275 | 30 ft | 13 kts | 302° |
| 2026-04-22 11:29 | 25.25055 | 55.36182 | 29 ft | 16 kts | 301° |
| 2026-04-22 11:30 | 25.25116 | 55.36072 | 25 ft | 18 kts | 301° |
| 2026-04-22 11:30 | 25.25183 | 55.35947 | 23 ft | 20 kts | 301° |
| 2026-04-22 11:30 | 25.25258 | 55.35812 | 21 ft | 21 kts | 302° |
| 2026-04-22 11:30 | 25.25336 | 55.35672 | 19 ft | 22 kts | 301° |
| 2026-04-22 11:31 | 25.25414 | 55.35530 | 20 ft | 21 kts | 301° |
| 2026-04-22 11:31 | 25.25490 | 55.35392 | 21 ft | 21 kts | 302° |
| 2026-04-22 11:31 | 25.25566 | 55.35260 | 24 ft | 20 kts | 302° |
| 2026-04-22 11:31 | 25.25624 | 55.35173 | 23 ft | 12 kts | 332° |
| 2026-04-22 11:32 | 25.25692 | 55.35171 | 25 ft | 10 kts | 24° |
| 2026-04-22 11:32 | 25.25756 | 55.35214 | 25 ft | 13 kts | 31° |
| 2026-04-22 11:32 | 25.25833 | 55.35264 | 23 ft | 13 kts | 30° |
| 2026-04-22 11:32 | 25.25907 | 55.35311 | 26 ft | 12 kts | 30° |
| 2026-04-22 11:33 | 25.25940 | 55.35337 | 27 ft | 0 kts | 42° |
| 2026-04-22 11:33 | 25.25951 | 55.35347 | 27 ft | 4 kts | 42° |
| 2026-04-22 11:33 | 25.25973 | 55.35374 | 27 ft | 4 kts | 71° |
| 2026-04-22 11:34 | 25.25984 | 55.35425 | 25 ft | 10 kts | 77° |
| 2026-04-22 11:34 | 25.25982 | 55.35530 | 25 ft | 17 kts | 111° |
| 2026-04-22 11:34 | 25.25914 | 55.35667 | 25 ft | 23 kts | 123° |
| 2026-04-22 11:34 | 25.25825 | 55.35822 | 24 ft | 24 kts | 121° |
| 2026-04-22 11:35 | 25.25738 | 55.35985 | 26 ft | 25 kts | 120° |
| 2026-04-22 11:35 | 25.25644 | 55.36143 | 27 ft | 24 kts | 124° |
| 2026-04-22 11:35 | 25.25556 | 55.36307 | 27 ft | 26 kts | 119° |
| 2026-04-22 11:35 | 25.25464 | 55.36478 | 26 ft | 26 kts | 122° |
| 2026-04-22 11:36 | 25.25365 | 55.36651 | 30 ft | 27 kts | 123° |
| 2026-04-22 11:36 | 25.25268 | 55.36824 | 30 ft | 26 kts | 120° |
| 2026-04-22 11:36 | 25.25179 | 55.36994 | 34 ft | 23 kts | 120° |
| 2026-04-22 11:36 | 25.25098 | 55.37138 | 39 ft | 22 kts | 122° |
| 2026-04-22 11:37 | 25.25015 | 55.37284 | 41 ft | 23 kts | 122° |
| 2026-04-22 11:37 | 25.24932 | 55.37433 | 44 ft | 23 kts | 120° |
| 2026-04-22 11:37 | 25.24847 | 55.37593 | 43 ft | 25 kts | 121° |
| 2026-04-22 11:37 | 25.24757 | 55.37757 | 45 ft | 21 kts | 121° |
| 2026-04-22 11:38 | 25.24683 | 55.37889 | 45 ft | 12 kts | 119° |
| 2026-04-22 11:38 | 25.24676 | 55.37946 | 45 ft | 6 kts | 63° |
| 2026-04-22 11:38 | 25.24702 | 55.37971 | 45 ft | 0 kts | 33° |
| 2026-04-22 11:40 | 25.24703 | 55.37972 | 45 ft | 1 kts | 33° |
| 2026-04-22 11:40 | 25.24724 | 55.37987 | 42 ft | 5 kts | 33° |
| 2026-04-22 11:40 | 25.24759 | 55.38010 | 45 ft | 6 kts | 19° |
| 2026-04-22 11:40 | 25.24798 | 55.38010 | 47 ft | 5 kts | 325° |
| 2026-04-22 11:41 | 25.24828 | 55.37973 | 45 ft | 8 kts | 308° |
| 2026-04-22 11:41 | 25.24891 | 55.37867 | 45 ft | 26 kts | 301° |
| 2026-04-22 11:41 | 25.25172 | 55.37375 | 44 ft | 126 kts | 301° |
| 2026-04-22 11:41 | 25.25762 | 55.36318 | 37 ft | 189 kts | 302° |
| 2026-04-22 11:42 | 25.26471 | 55.35006 | 361 ft | 205 kts | 305° |
| 2026-04-22 11:42 | 25.27191 | 55.33631 | 947 ft | 203 kts | 305° |
| 2026-04-22 11:42 | 25.27896 | 55.32372 | 1876 ft | 184 kts | 303° |
| 2026-04-22 11:42 | 25.28593 | 55.31154 | 2346 ft | 192 kts | 301° |
| 2026-04-22 11:43 | 25.29244 | 55.29864 | 2877 ft | 193 kts | 283° |
| 2026-04-22 11:43 | 25.29201 | 55.28443 | 3448 ft | 184 kts | 246° |
| 2026-04-22 11:43 | 25.28635 | 55.27167 | 3822 ft | 190 kts | 242° |
| 2026-04-22 11:43 | 25.28038 | 55.25846 | 4142 ft | 197 kts | 243° |
| 2026-04-22 11:44 | 25.27455 | 55.24498 | 4631 ft | 194 kts | 243° |
| 2026-04-22 11:44 | 25.26868 | 55.23136 | 5006 ft | 197 kts | 243° |
| 2026-04-22 11:44 | 25.26284 | 55.21769 | 5383 ft | 202 kts | 243° |
| 2026-04-22 11:44 | 25.25659 | 55.20307 | 5850 ft | 219 kts | 243° |
| 2026-04-22 11:45 | 25.24981 | 55.18724 | 6357 ft | 233 kts | 240° |
| 2026-04-22 11:45 | 25.23949 | 55.17330 | 6873 ft | 242 kts | 216° |
| 2026-04-22 11:45 | 25.22399 | 55.16659 | 7159 ft | 243 kts | 185° |
| 2026-04-22 11:45 | 25.21275 | 55.16726 | 7574 ft | 246 kts | 176° |
| 2026-04-22 11:46 | 25.19546 | 55.17072 | 8170 ft | 261 kts | 160° |
| 2026-04-22 11:46 | 25.18042 | 55.18225 | 9015 ft | 270 kts | 134° |
| 2026-04-22 11:46 | 25.17035 | 55.20016 | 9744 ft | 282 kts | 121° |
| 2026-04-22 11:46 | 25.16086 | 55.22020 | 10120 ft | 302 kts | 120° |
| 2026-04-22 11:47 | 25.15111 | 55.24099 | 10865 ft | 306 kts | 120° |
| 2026-04-22 11:47 | 25.14119 | 55.26196 | 11600 ft | 311 kts | 120° |
| 2026-04-22 11:47 | 25.13104 | 55.28323 | 12361 ft | 314 kts | 120° |
| 2026-04-22 11:47 | 25.12075 | 55.30470 | 13120 ft | 318 kts | 120° |
| 2026-04-22 11:48 | 25.11032 | 55.32639 | 13825 ft | 322 kts | 120° |
| 2026-04-22 11:48 | 25.10060 | 55.34880 | 14479 ft | 327 kts | 116° |
| 2026-04-22 11:48 | 25.09132 | 55.37155 | 14829 ft | 331 kts | 116° |
| 2026-04-22 11:48 | 25.08182 | 55.39466 | 14942 ft | 332 kts | 116° |
| 2026-04-22 11:49 | 25.07224 | 55.41789 | 14954 ft | 333 kts | 116° |
| 2026-04-22 11:49 | 25.06270 | 55.44172 | 14957 ft | 351 kts | 115° |
| 2026-04-22 11:49 | 25.05289 | 55.46730 | 15094 ft | 372 kts | 114° |
| 2026-04-22 11:49 | 25.04266 | 55.49421 | 15435 ft | 385 kts | 114° |
| 2026-04-22 11:50 | 25.03223 | 55.52155 | 16059 ft | 388 kts | 114° |
| 2026-04-22 11:50 | 25.02158 | 55.54907 | 16687 ft | 391 kts | 117° |
| 2026-04-22 11:50 | 25.00846 | 55.57540 | 17273 ft | 394 kts | 123° |
| 2026-04-22 11:50 | 24.99415 | 55.60145 | 17883 ft | 398 kts | 123° |
| 2026-04-22 11:51 | 24.97991 | 55.62772 | 18438 ft | 401 kts | 123° |
| 2026-04-22 11:51 | 24.96557 | 55.65428 | 18916 ft | 406 kts | 123° |
| 2026-04-22 11:51 | 24.95105 | 55.68119 | 19382 ft | 410 kts | 123° |
| 2026-04-22 11:51 | 24.93579 | 55.70785 | 19864 ft | 412 kts | 128° |
| 2026-04-22 11:52 | 24.91870 | 55.73337 | 20350 ft | 416 kts | 129° |
| 2026-04-22 11:52 | 24.90149 | 55.75920 | 20812 ft | 420 kts | 129° |
| 2026-04-22 11:52 | 24.88419 | 55.78530 | 21282 ft | 424 kts | 129° |
| 2026-04-22 11:52 | 24.86671 | 55.81167 | 21745 ft | 428 kts | 129° |
| 2026-04-22 11:53 | 24.84905 | 55.83832 | 22198 ft | 432 kts | 129° |
| 2026-04-22 11:53 | 24.83122 | 55.86513 | 22664 ft | 436 kts | 129° |
| 2026-04-22 11:53 | 24.81317 | 55.89151 | 23094 ft | 438 kts | 133° |
| 2026-04-22 11:53 | 24.79114 | 55.91455 | 23465 ft | 436 kts | 148° |
| 2026-04-22 11:54 | 24.76494 | 55.93086 | 23860 ft | 431 kts | 162° |
| 2026-04-22 11:54 | 24.73627 | 55.93965 | 24225 ft | 426 kts | 176° |
| 2026-04-22 11:54 | 24.70685 | 55.94083 | 24633 ft | 423 kts | 187° |
| 2026-04-22 11:54 | 24.67745 | 55.93859 | 24999 ft | 426 kts | 189° |
| 2026-04-22 11:55 | 24.64778 | 55.93616 | 25457 ft | 428 kts | 188° |
| 2026-04-22 11:55 | 24.61850 | 55.93119 | 25893 ft | 425 kts | 200° |
| 2026-04-22 11:55 | 24.59106 | 55.91947 | 26387 ft | 421 kts | 212° |
| 2026-04-22 11:55 | 24.56681 | 55.90168 | 26887 ft | 418 kts | 224° |
| 2026-04-22 11:56 | 24.54507 | 55.88039 | 27373 ft | 420 kts | 225° |
| 2026-04-22 11:56 | 24.52307 | 55.85907 | 27906 ft | 424 kts | 225° |
| 2026-04-22 11:56 | 24.50081 | 55.83767 | 28402 ft | 427 kts | 225° |
| 2026-04-22 11:56 | 24.47838 | 55.81614 | 28937 ft | 430 kts | 225° |
| 2026-04-22 11:57 | 24.45574 | 55.79440 | 29461 ft | 434 kts | 226° |
| 2026-04-22 11:57 | 24.43293 | 55.77250 | 29948 ft | 437 kts | 226° |
| 2026-04-22 11:57 | 24.41033 | 55.75080 | 30399 ft | 440 kts | 226° |
| 2026-04-22 11:57 | 24.38715 | 55.72854 | 30877 ft | 443 kts | 226° |
| 2026-04-22 11:58 | 24.36390 | 55.70623 | 31343 ft | 445 kts | 226° |
| 2026-04-22 11:58 | 24.34049 | 55.68376 | 31794 ft | 448 kts | 227° |
| 2026-04-22 11:58 | 24.31696 | 55.66120 | 32264 ft | 451 kts | 227° |
| 2026-04-22 11:58 | 24.29315 | 55.63867 | 32716 ft | 455 kts | 224° |
| 2026-04-22 11:59 | 24.26690 | 55.61860 | 33186 ft | 465 kts | 217° |
| 2026-04-22 11:59 | 24.23783 | 55.60224 | 33640 ft | 475 kts | 210° |
| 2026-04-22 11:59 | 24.20632 | 55.59000 | 34031 ft | 486 kts | 202° |
| 2026-04-22 11:59 | 24.17355 | 55.58049 | 34404 ft | 489 kts | 202° |
| 2026-04-22 12:00 | 24.14066 | 55.57077 | 34864 ft | 490 kts | 202° |
| 2026-04-22 12:00 | 24.10780 | 55.56095 | 35360 ft | 489 kts | 202° |
| 2026-04-22 12:00 | 24.07495 | 55.55112 | 35864 ft | 489 kts | 203° |
| 2026-04-22 12:00 | 24.04213 | 55.54130 | 36330 ft | 489 kts | 203° |
| 2026-04-22 12:01 | 24.00969 | 55.53161 | 36819 ft | 489 kts | 203° |
| 2026-04-22 12:01 | 23.97675 | 55.52178 | 37288 ft | 490 kts | 203° |
| 2026-04-22 12:01 | 23.94383 | 55.51199 | 37664 ft | 492 kts | 204° |
| 2026-04-22 12:01 | 23.91061 | 55.50211 | 37749 ft | 493 kts | 204° |
| 2026-04-22 12:02 | 23.84458 | 55.48256 | 37742 ft | 493 kts | 204° |
| 2026-04-22 12:02 | 23.77828 | 55.46286 | 37742 ft | 494 kts | 204° |
| 2026-04-22 12:03 | 23.71190 | 55.44317 | 37741 ft | 494 kts | 204° |
| 2026-04-22 12:03 | 23.64556 | 55.42350 | 37740 ft | 494 kts | 204° |
| 2026-04-22 12:04 | 23.57922 | 55.40385 | 37736 ft | 494 kts | 204° |
| 2026-04-22 12:04 | 23.51288 | 55.38423 | 37730 ft | 494 kts | 204° |
| 2026-04-22 12:05 | 23.44700 | 55.36475 | 37724 ft | 494 kts | 204° |
| 2026-04-22 12:05 | 23.38056 | 55.34511 | 37720 ft | 494 kts | 204° |
| 2026-04-22 12:06 | 23.31411 | 55.32549 | 37724 ft | 495 kts | 204° |
| 2026-04-22 12:06 | 23.24763 | 55.30589 | 37720 ft | 496 kts | 204° |
| 2026-04-22 12:07 | 23.18104 | 55.28627 | 37721 ft | 496 kts | 204° |
| 2026-04-22 12:07 | 23.11437 | 55.26638 | 37730 ft | 493 kts | 207° |
| 2026-04-22 12:08 | 23.08306 | 55.25227 | 37727 ft | 482 kts | 216° |
| 2026-04-22 12:08 | 23.05488 | 55.23339 | 37724 ft | 471 kts | 225° |
| 2026-04-22 12:08 | 23.00933 | 55.18463 | 37730 ft | 453 kts | 241° |
| 2026-04-22 12:09 | 22.97907 | 55.12607 | 37713 ft | 442 kts | 251° |
| 2026-04-22 12:09 | 22.95291 | 55.06571 | 37713 ft | 442 kts | 251° |
| 2026-04-22 12:10 | 22.92652 | 55.00542 | 37709 ft | 442 kts | 251° |
| 2026-04-22 12:10 | 22.90035 | 54.94562 | 37707 ft | 442 kts | 251° |
| 2026-04-22 12:11 | 22.87400 | 54.88540 | 37709 ft | 442 kts | 251° |
| 2026-04-22 12:11 | 22.84766 | 54.82527 | 37723 ft | 441 kts | 251° |
| 2026-04-22 12:12 | 22.82128 | 54.76515 | 37723 ft | 441 kts | 251° |
| 2026-04-22 12:12 | 22.79489 | 54.70506 | 37724 ft | 441 kts | 251° |
| 2026-04-22 12:13 | 22.76849 | 54.64502 | 37714 ft | 442 kts | 251° |
| 2026-04-22 12:13 | 22.74204 | 54.58495 | 37691 ft | 441 kts | 251° |
| 2026-04-22 12:14 | 22.71559 | 54.52497 | 37713 ft | 441 kts | 251° |
| 2026-04-22 12:14 | 22.68914 | 54.46501 | 37712 ft | 441 kts | 251° |
| 2026-04-22 12:15 | 22.66269 | 54.40503 | 37714 ft | 441 kts | 251° |
| 2026-04-22 12:15 | 22.63624 | 54.34503 | 37716 ft | 441 kts | 251° |
| 2026-04-22 12:16 | 22.60990 | 54.28544 | 37716 ft | 441 kts | 251° |
| 2026-04-22 12:16 | 22.58339 | 54.22551 | 37720 ft | 441 kts | 251° |
| 2026-04-22 12:17 | 22.55692 | 54.16574 | 37712 ft | 440 kts | 251° |
| 2026-04-22 12:17 | 22.53047 | 54.10610 | 37719 ft | 440 kts | 251° |
| 2026-04-22 12:18 | 22.50398 | 54.04642 | 37713 ft | 440 kts | 251° |
| 2026-04-22 12:18 | 22.47763 | 53.98714 | 37714 ft | 440 kts | 251° |
| 2026-04-22 12:19 | 22.45114 | 53.92762 | 37711 ft | 439 kts | 251° |
| 2026-04-22 12:19 | 22.42463 | 53.86813 | 37703 ft | 439 kts | 251° |
| 2026-04-22 12:20 | 22.39812 | 53.80870 | 37705 ft | 439 kts | 251° |
| 2026-04-22 12:20 | 22.37162 | 53.74937 | 37714 ft | 439 kts | 251° |
| 2026-04-22 12:21 | 22.34506 | 53.69000 | 37711 ft | 438 kts | 251° |
| 2026-04-22 12:21 | 22.31851 | 53.63071 | 37709 ft | 438 kts | 251° |
| 2026-04-22 12:22 | 22.29197 | 53.57149 | 37713 ft | 438 kts | 251° |
| 2026-04-22 12:22 | 22.26558 | 53.51267 | 37710 ft | 438 kts | 251° |
| 2026-04-22 12:23 | 22.23899 | 53.45345 | 37708 ft | 438 kts | 251° |
| 2026-04-22 12:23 | 22.21237 | 53.39425 | 37711 ft | 438 kts | 251° |
| 2026-04-22 12:24 | 22.18572 | 53.33505 | 37714 ft | 438 kts | 251° |
| 2026-04-22 12:24 | 22.15905 | 53.27590 | 37713 ft | 438 kts | 251° |
| 2026-04-22 12:25 | 22.13238 | 53.21680 | 37712 ft | 438 kts | 251° |
| 2026-04-22 12:25 | 22.10566 | 53.15767 | 37713 ft | 438 kts | 251° |
| 2026-04-22 12:26 | 22.07891 | 53.09855 | 37717 ft | 438 kts | 251° |
| 2026-04-22 12:26 | 22.05216 | 53.03946 | 37713 ft | 438 kts | 251° |
| 2026-04-22 12:27 | 22.02542 | 52.98049 | 37715 ft | 438 kts | 251° |
| 2026-04-22 12:27 | 21.99880 | 52.92185 | 37714 ft | 438 kts | 251° |
| 2026-04-22 12:28 | 21.97199 | 52.86287 | 37712 ft | 438 kts | 251° |
| 2026-04-22 12:28 | 21.94519 | 52.80396 | 37718 ft | 438 kts | 251° |
| 2026-04-22 12:29 | 21.91837 | 52.74509 | 37711 ft | 438 kts | 251° |
| 2026-04-22 12:29 | 21.89155 | 52.68626 | 37714 ft | 437 kts | 250° |
| 2026-04-22 12:30 | 21.85123 | 52.59806 | 37714 ft | 437 kts | 250° |
| 2026-04-22 12:31 | 21.82435 | 52.53934 | 37713 ft | 437 kts | 250° |
| 2026-04-22 12:31 | 21.79745 | 52.48062 | 37709 ft | 437 kts | 250° |
| 2026-04-22 12:32 | 21.77052 | 52.42194 | 37712 ft | 437 kts | 250° |
| 2026-04-22 12:32 | 21.73030 | 52.33449 | 37711 ft | 437 kts | 250° |
| 2026-04-22 12:33 | 21.70331 | 52.27600 | 37713 ft | 437 kts | 250° |
| 2026-04-22 12:33 | 21.67629 | 52.21749 | 37712 ft | 436 kts | 250° |
| 2026-04-22 12:34 | 21.64930 | 52.15911 | 37710 ft | 436 kts | 250° |
| 2026-04-22 12:34 | 21.62688 | 52.11067 | 37710 ft | 436 kts | 250° |
| 2026-04-22 12:35 | 21.59971 | 52.05202 | 37712 ft | 436 kts | 250° |
| 2026-04-22 12:35 | 21.57266 | 51.99370 | 37710 ft | 436 kts | 250° |
| 2026-04-22 12:36 | 21.54555 | 51.93532 | 37709 ft | 436 kts | 250° |
| 2026-04-22 12:36 | 21.51847 | 51.87706 | 37712 ft | 436 kts | 250° |
| 2026-04-22 12:37 | 21.49155 | 51.81919 | 37710 ft | 436 kts | 250° |
| 2026-04-22 12:37 | 21.46666 | 51.76018 | 37712 ft | 429 kts | 257° |
| 2026-04-22 12:38 | 21.45326 | 51.69827 | 37709 ft | 422 kts | 267° |
| 2026-04-22 12:38 | 21.45166 | 51.63579 | 37714 ft | 417 kts | 275° |
| 2026-04-22 12:39 | 21.45526 | 51.54239 | 37710 ft | 418 kts | 275° |
| 2026-04-22 12:40 | 21.45748 | 51.48050 | 37708 ft | 417 kts | 275° |
| 2026-04-22 12:40 | 21.45972 | 51.41823 | 37706 ft | 417 kts | 275° |
| 2026-04-22 12:41 | 21.46195 | 51.35585 | 37711 ft | 417 kts | 274° |
| 2026-04-22 12:41 | 21.46416 | 51.29346 | 37709 ft | 417 kts | 274° |
| 2026-04-22 12:42 | 21.46633 | 51.23158 | 37713 ft | 417 kts | 274° |
| 2026-04-22 12:42 | 21.46848 | 51.16968 | 37709 ft | 417 kts | 274° |
| 2026-04-22 12:43 | 21.47062 | 51.10733 | 37709 ft | 417 kts | 274° |
| 2026-04-22 12:43 | 21.47273 | 51.04516 | 37713 ft | 417 kts | 274° |
| 2026-04-22 12:44 | 21.47483 | 50.98277 | 37709 ft | 417 kts | 274° |
| 2026-04-22 12:44 | 21.47690 | 50.92055 | 37709 ft | 416 kts | 274° |
| 2026-04-22 12:45 | 21.47894 | 50.85837 | 37706 ft | 416 kts | 274° |
| 2026-04-22 12:45 | 21.48095 | 50.79658 | 37705 ft | 416 kts | 274° |
| 2026-04-22 12:46 | 21.48294 | 50.73452 | 37707 ft | 416 kts | 274° |
| 2026-04-22 12:46 | 21.48491 | 50.67245 | 37704 ft | 416 kts | 274° |
| 2026-04-22 12:47 | 21.48686 | 50.61035 | 37704 ft | 416 kts | 274° |
| 2026-04-22 12:47 | 21.48878 | 50.54829 | 37707 ft | 416 kts | 274° |
| 2026-04-22 12:48 | 21.49068 | 50.48625 | 37709 ft | 415 kts | 274° |
| 2026-04-22 12:48 | 21.49256 | 50.42426 | 37709 ft | 415 kts | 274° |
| 2026-04-22 12:49 | 21.49440 | 50.36257 | 37706 ft | 415 kts | 274° |
| 2026-04-22 12:49 | 21.49623 | 50.30051 | 37710 ft | 415 kts | 274° |
| 2026-04-22 12:50 | 21.49804 | 50.23852 | 37709 ft | 415 kts | 274° |
| 2026-04-22 12:50 | 21.49982 | 50.17647 | 37708 ft | 415 kts | 274° |
| 2026-04-22 12:51 | 21.50357 | 50.11473 | 37706 ft | 414 kts | 278° |
| 2026-04-22 12:51 | 21.51509 | 50.05461 | 37705 ft | 414 kts | 285° |
| 2026-04-22 12:52 | 21.53421 | 49.99633 | 37702 ft | 414 kts | 290° |